createdAt,value
2019-01-16T00:02:05.332Z,67.23
2019-01-16T00:04:51.966Z,67.14
2019-01-16T00:07:38.614Z,67.29
2019-01-16T00:10:25.401Z,67.29
2019-01-16T00:13:12.024Z,67.23
2019-01-16T00:15:58.662Z,67.25
2019-01-16T00:18:45.314Z,67.34
2019-01-16T00:21:31.936Z,67.17
2019-01-16T00:24:18.559Z,67.05
2019-01-16T00:27:03.361Z,66.98
2019-01-16T00:29:50.001Z,67.03
2019-01-16T00:32:36.649Z,67.24
2019-01-16T00:35:23.867Z,67.01
2019-01-16T00:38:10.504Z,66.93
2019-01-16T00:40:57.140Z,66.91
2019-01-16T00:43:43.737Z,67.17
2019-01-16T00:46:30.402Z,67.23
2019-01-16T00:49:17.059Z,67.26
2019-01-16T00:52:03.697Z,67.58
2019-01-16T00:54:50.311Z,67.47
2019-01-16T00:57:35.353Z,67.43
2019-01-16T01:00:22.196Z,67.35
2019-01-16T01:03:08.870Z,67.47
2019-01-16T01:05:54.845Z,67.65
2019-01-16T01:08:41.458Z,67.77
2019-01-16T01:11:28.072Z,67.95
2019-01-16T01:14:14.706Z,67.99
2019-01-16T01:17:01.369Z,68.04
2019-01-16T01:19:47.985Z,68.08
2019-01-16T01:22:34.621Z,67.96
2019-01-16T01:25:21.308Z,68.06
2019-01-16T01:28:07.998Z,67.97
2019-01-16T01:30:54.598Z,67.82
2019-01-16T01:33:41.214Z,67.65
2019-01-16T01:36:27.888Z,67.40
2019-01-16T01:39:14.500Z,67.42
2019-01-16T01:42:01.177Z,67.51
2019-01-16T01:44:47.812Z,67.23
2019-01-16T01:47:34.523Z,67.05
2019-01-16T01:50:21.149Z,66.97
2019-01-16T01:53:07.776Z,66.95
2019-01-16T01:55:54.457Z,66.74
2019-01-16T01:58:41.049Z,66.71
2019-01-16T02:01:27.669Z,66.79
2019-01-16T02:04:14.330Z,66.87
2019-01-16T02:07:00.933Z,66.94
2019-01-16T02:09:47.569Z,66.79
2019-01-16T02:12:34.187Z,66.77
2019-01-16T02:15:20.831Z,66.90
2019-01-16T02:18:07.444Z,67.12
2019-01-16T02:20:54.094Z,67.10
2019-01-16T02:23:35.541Z,67.12
2019-01-16T02:26:22.180Z,67.36
2019-01-16T02:29:08.828Z,67.21
2019-01-16T02:31:55.452Z,67.38
2019-01-16T02:34:42.075Z,67.33
2019-01-16T02:37:17.046Z,67.47
2019-01-16T02:40:03.671Z,67.33
2019-01-16T02:42:50.285Z,67.54
2019-01-16T02:45:36.917Z,67.54
2019-01-16T02:48:23.557Z,67.55
2019-01-16T02:51:10.187Z,67.43
2019-01-16T02:53:46.913Z,67.69
2019-01-16T02:56:33.544Z,67.79
2019-01-16T02:59:29.377Z,68.19
2019-01-16T03:02:16.007Z,68.20
2019-01-16T03:05:02.634Z,68.23
2019-01-16T03:07:37.724Z,68.25
2019-01-16T03:10:24.617Z,68.34
2019-01-16T03:13:11.224Z,68.34
2019-01-16T03:15:57.896Z,68.47
2019-01-16T03:18:42.904Z,68.53
2019-01-16T03:21:29.560Z,68.56
2019-01-16T03:24:17.727Z,68.63
2019-01-16T03:27:10.940Z,68.64
2019-01-16T03:29:47.302Z,68.55
2019-01-16T03:32:33.937Z,68.46
2019-01-16T03:35:08.822Z,68.36
2019-01-16T03:37:55.460Z,68.50
2019-01-16T03:40:42.078Z,68.43
2019-01-16T03:43:28.717Z,68.33
2019-01-16T03:46:15.342Z,68.56
2019-01-16T03:49:01.994Z,68.53
2019-01-16T03:51:48.599Z,68.60
2019-01-16T03:54:35.251Z,68.55
2019-01-16T03:57:21.900Z,68.67
2019-01-16T04:00:08.939Z,68.87
2019-01-16T04:02:55.613Z,68.90
2019-01-16T04:05:33.804Z,68.73
2019-01-16T04:08:20.438Z,68.78
2019-01-16T04:10:59.168Z,69.07
2019-01-16T04:13:45.781Z,69.11
2019-01-16T04:16:32.412Z,69.14
2019-01-16T04:19:21.787Z,69.19
2019-01-16T04:22:14.237Z,69.28
2019-01-16T04:25:00.814Z,69.34
2019-01-16T04:27:47.458Z,69.52
2019-01-16T04:30:34.054Z,69.56
2019-01-16T04:33:20.709Z,69.58
2019-01-16T04:36:07.318Z,69.68
2019-01-16T04:38:53.981Z,69.84
2019-01-16T04:41:40.586Z,70.00
2019-01-16T04:44:27.281Z,70.06
2019-01-16T04:47:13.892Z,70.04
2019-01-16T04:50:00.530Z,70.07
2019-01-16T04:52:47.143Z,70.11
2019-01-16T04:55:26.300Z,69.93
2019-01-16T04:58:06.988Z,69.94
2019-01-16T05:00:53.626Z,69.91
2019-01-16T05:03:40.237Z,69.86
2019-01-16T05:06:24.445Z,69.99
2019-01-16T05:09:11.061Z,70.18
2019-01-16T05:11:57.691Z,70.29
2019-01-16T05:14:44.317Z,70.33
2019-01-16T05:17:31.033Z,70.26
2019-01-16T05:20:11.705Z,70.22
2019-01-16T05:22:58.347Z,70.36
2019-01-16T05:25:44.969Z,70.39
2019-01-16T05:28:31.612Z,70.30
2019-01-16T05:31:18.229Z,70.37
2019-01-16T05:34:04.886Z,70.28
2019-01-16T05:36:51.515Z,70.22
2019-01-16T05:39:38.175Z,70.24
2019-01-16T05:42:24.793Z,70.42
2019-01-16T05:45:11.446Z,70.62
2019-01-16T05:47:58.119Z,73.22
2019-01-16T05:50:44.821Z,76.94
2019-01-16T05:53:31.462Z,76.98
2019-01-16T05:56:18.106Z,76.39
2019-01-16T05:59:04.712Z,74.27
2019-01-16T06:01:51.365Z,72.36
2019-01-16T06:04:38.021Z,71.91
2019-01-16T06:07:24.726Z,69.11
2019-01-16T06:10:11.356Z,66.84
2019-01-16T06:12:58.039Z,65.45
2019-01-16T06:15:32.306Z,65.32
2019-01-16T06:18:18.936Z,65.25
2019-01-16T06:21:05.554Z,65.95
2019-01-16T06:23:52.204Z,63.98
2019-01-16T06:26:38.833Z,62.64
2019-01-16T06:29:25.495Z,63.02
2019-01-16T06:32:12.104Z,63.06
2019-01-16T06:34:58.746Z,63.17
2019-01-16T06:37:45.360Z,64.15
2019-01-16T06:40:32.089Z,64.59
2019-01-16T06:43:18.706Z,65.63
2019-01-16T06:46:05.334Z,66.03
2019-01-16T06:48:51.970Z,66.46
2019-01-16T06:51:38.590Z,66.79
2019-01-16T06:54:25.214Z,67.24
2019-01-16T06:57:11.836Z,67.56
2019-01-16T06:59:58.453Z,68.00
2019-01-16T07:02:45.081Z,68.57
2019-01-16T07:05:31.697Z,69.21
2019-01-16T07:08:18.338Z,69.65
2019-01-16T07:11:04.970Z,69.98
2019-01-16T07:13:51.602Z,69.89
2019-01-16T07:16:38.233Z,70.00
2019-01-16T07:19:24.860Z,70.12
2019-01-16T07:22:11.494Z,70.06
2019-01-16T07:24:58.159Z,70.00
2019-01-16T07:27:44.797Z,69.98
2019-01-16T07:33:25.496Z,70.29
2019-01-16T07:36:12.136Z,70.55
2019-01-16T07:38:49.922Z,70.73
2019-01-16T07:41:36.601Z,70.90
2019-01-16T07:44:23.577Z,70.73
2019-01-16T07:47:10.255Z,70.77
2019-01-16T07:49:56.921Z,70.74
2019-01-16T07:52:43.583Z,70.62
2019-01-16T07:55:30.195Z,70.57
2019-01-16T07:58:16.866Z,70.36
2019-01-16T08:01:03.503Z,70.22
2019-01-16T08:03:50.131Z,70.01
2019-01-16T08:06:36.836Z,70.00
2019-01-16T08:12:26.901Z,70.08
2019-01-16T08:15:13.527Z,70.24
2019-01-16T08:18:00.142Z,70.28
2019-01-16T08:20:46.783Z,70.15
2019-01-16T08:23:33.405Z,70.11
2019-01-16T08:26:20.045Z,69.91
2019-01-16T08:29:06.665Z,70.99
2019-01-16T08:31:46.876Z,71.68
2019-01-16T08:34:33.530Z,71.32
2019-01-16T08:37:20.142Z,71.74
2019-01-16T08:40:06.766Z,71.59
2019-01-16T08:42:53.392Z,69.99
2019-01-16T08:45:40.042Z,71.41
2019-01-16T08:48:26.664Z,68.03
2019-01-16T08:51:13.308Z,66.25
2019-01-16T08:53:59.916Z,66.32
2019-01-16T08:56:46.562Z,67.17
2019-01-16T08:59:33.192Z,66.68
2019-01-16T09:02:19.807Z,67.31
2019-01-16T09:05:00.040Z,71.88
2019-01-16T09:07:46.680Z,74.04
2019-01-16T09:10:33.298Z,73.10
2019-01-16T09:13:19.954Z,70.72
2019-01-16T09:16:06.602Z,67.73
2019-01-16T09:18:46.864Z,67.96
2019-01-16T09:21:33.480Z,67.47
2019-01-16T09:24:20.112Z,64.24
2019-01-16T09:27:06.785Z,63.10
2019-01-16T09:30:01.066Z,62.60
2019-01-16T09:32:47.686Z,63.66
2019-01-16T09:35:34.349Z,60.56
2019-01-16T09:38:20.980Z,60.15
2019-01-16T09:41:07.625Z,60.94
2019-01-16T09:43:54.252Z,61.79
2019-01-16T09:46:39.137Z,62.35
2019-01-16T09:49:25.761Z,62.93
2019-01-16T09:52:12.428Z,63.61
2019-01-16T09:54:59.053Z,63.76
2019-01-16T09:57:45.707Z,64.25
2019-01-16T10:03:37.089Z,64.82
2019-01-16T10:06:23.856Z,64.89
2019-01-16T10:09:10.499Z,64.78
2019-01-16T10:11:57.111Z,64.35
2019-01-16T10:14:47.237Z,64.54
2019-01-16T10:17:33.881Z,64.49
2019-01-16T10:20:20.494Z,65.13
2019-01-16T10:22:58.972Z,64.72
2019-01-16T10:25:45.574Z,64.71
2019-01-16T10:28:32.207Z,64.41
2019-01-16T10:31:18.880Z,64.07
2019-01-16T10:34:05.536Z,63.92
2019-01-16T10:36:52.187Z,63.55
2019-01-16T10:39:38.803Z,63.14
2019-01-16T10:42:25.450Z,63.02
2019-01-16T10:45:12.060Z,63.01
2019-01-16T10:47:58.723Z,62.82
2019-01-16T10:50:45.382Z,62.79
2019-01-16T10:53:23.599Z,62.86
2019-01-16T10:56:10.219Z,62.75
2019-01-16T10:58:50.355Z,62.69
2019-01-16T11:01:37.005Z,62.78
2019-01-16T11:04:11.795Z,62.61
2019-01-16T11:06:58.395Z,62.55
2019-01-16T11:09:45.143Z,62.55
2019-01-16T11:12:31.770Z,62.48
2019-01-16T11:15:18.392Z,62.00
2019-01-16T11:18:07.610Z,61.59
2019-01-16T11:20:45.598Z,61.71
2019-01-16T11:23:32.248Z,61.51
2019-01-16T11:26:18.898Z,61.39
2019-01-16T11:29:04.333Z,61.46
2019-01-16T11:31:50.959Z,61.28
2019-01-16T11:34:37.598Z,61.47
2019-01-16T11:37:24.230Z,61.54
2019-01-16T11:40:10.957Z,61.41
2019-01-16T11:42:57.596Z,61.40
2019-01-16T11:45:44.232Z,61.19
2019-01-16T11:48:30.866Z,61.07
2019-01-16T11:51:18.858Z,60.92
2019-01-16T11:54:12.353Z,60.80
2019-01-16T11:56:58.983Z,60.41
2019-01-16T11:59:34.691Z,60.61
2019-01-16T12:02:21.325Z,60.80
2019-01-16T12:05:07.998Z,60.56
2019-01-16T12:07:46.525Z,60.46
2019-01-16T12:10:33.156Z,60.27
2019-01-16T12:13:19.775Z,60.12
2019-01-16T12:16:06.492Z,60.04
2019-01-16T12:18:51.149Z,59.91
2019-01-16T12:21:37.785Z,59.80
2019-01-16T12:24:24.421Z,59.46
2019-01-16T12:27:11.073Z,59.50
2019-01-16T12:29:57.713Z,59.72
2019-01-16T12:32:44.391Z,59.32
2019-01-16T12:35:31.027Z,59.06
2019-01-16T12:38:17.676Z,58.99
2019-01-16T12:40:57.109Z,59.11
2019-01-16T12:43:43.808Z,58.94
2019-01-16T12:46:30.464Z,58.97
2019-01-16T12:49:17.175Z,58.71
2019-01-16T12:52:03.823Z,58.68
2019-01-16T12:54:50.462Z,58.69
2019-01-16T12:57:37.107Z,58.55
2019-01-16T13:03:26.289Z,58.79
2019-01-16T13:06:12.959Z,58.73
2019-01-16T13:08:59.610Z,58.82
2019-01-16T13:11:46.239Z,58.62
2019-01-16T13:14:32.914Z,58.41
2019-01-16T13:17:19.572Z,58.37
2019-01-16T13:20:06.231Z,58.55
2019-01-16T13:22:52.879Z,58.64
2019-01-16T13:25:39.502Z,58.67
2019-01-16T13:28:26.196Z,58.65
2019-01-16T13:31:12.862Z,58.78
2019-01-16T13:33:59.490Z,59.20
2019-01-16T13:36:46.114Z,59.62
2019-01-16T13:39:32.754Z,59.50
2019-01-16T13:42:15.625Z,59.57
2019-01-16T13:45:02.298Z,59.38
2019-01-16T13:47:48.964Z,59.44
2019-01-16T13:50:35.620Z,59.49
2019-01-16T13:53:22.356Z,59.61
2019-01-16T13:56:08.989Z,59.57
2019-01-16T13:58:47.058Z,59.66
2019-01-16T14:01:33.729Z,59.35
2019-01-16T14:04:09.155Z,59.57
2019-01-16T14:06:55.813Z,59.66
2019-01-16T14:09:42.452Z,59.82
2019-01-16T14:12:29.122Z,60.03
2019-01-16T14:15:15.769Z,60.23
2019-01-16T14:18:02.415Z,60.38
2019-01-16T14:20:49.062Z,60.51
2019-01-16T14:23:35.741Z,60.62
2019-01-16T14:26:22.390Z,60.68
2019-01-16T14:29:11.888Z,60.74
2019-01-16T14:32:04.491Z,60.82
2019-01-16T14:34:51.142Z,60.78
2019-01-16T14:37:37.799Z,60.90
2019-01-16T14:40:25.625Z,61.05
2019-01-16T14:43:04.979Z,61.27
2019-01-16T14:45:51.628Z,61.56
2019-01-16T14:48:38.303Z,61.93
2019-01-16T14:54:26.117Z,62.56
2019-01-16T14:57:12.766Z,62.89
2019-01-16T14:59:59.415Z,63.29
2019-01-16T15:02:46.118Z,63.21
2019-01-16T15:05:32.892Z,63.68
2019-01-16T15:08:19.596Z,64.74
2019-01-16T15:11:06.232Z,65.42
2019-01-16T15:13:52.900Z,65.17
2019-01-16T15:16:39.638Z,65.17
2019-01-16T15:19:26.274Z,64.73
2019-01-16T15:22:12.939Z,64.71
2019-01-16T15:24:59.593Z,65.02
2019-01-16T15:27:46.229Z,65.11
2019-01-16T15:33:34.660Z,64.20
2019-01-16T15:36:21.585Z,64.72
2019-01-16T15:39:08.391Z,65.48
2019-01-16T15:41:55.024Z,65.72
2019-01-16T15:44:41.676Z,66.06
2019-01-16T15:47:28.328Z,65.91
2019-01-16T15:50:14.973Z,65.96
2019-01-16T15:53:01.656Z,66.15
2019-01-16T15:55:48.296Z,66.62
2019-01-16T15:58:34.968Z,67.01
2019-01-16T16:01:21.638Z,67.30
2019-01-16T16:04:08.329Z,67.20
2019-01-16T16:06:55.018Z,67.41
2019-01-16T16:09:41.687Z,67.49
2019-01-16T16:12:28.314Z,67.28
2019-01-16T16:15:14.987Z,67.56
2019-01-16T16:18:01.652Z,67.82
2019-01-16T16:20:48.784Z,67.72
2019-01-16T16:23:35.465Z,68.67
2019-01-16T16:26:22.127Z,68.60
2019-01-16T16:29:08.803Z,68.17
2019-01-16T16:31:55.488Z,68.28
2019-01-16T16:34:42.155Z,67.83
2019-01-16T16:37:29.444Z,68.43
2019-01-16T16:40:16.197Z,69.00
2019-01-16T16:42:53.584Z,69.33
2019-01-16T16:45:40.561Z,69.19
2019-01-16T16:48:27.297Z,69.16
2019-01-16T16:51:14.650Z,69.38
2019-01-16T16:54:01.661Z,69.42
2019-01-16T16:56:48.442Z,69.46
2019-01-16T16:59:35.384Z,69.50
2019-01-16T17:02:22.542Z,68.93
2019-01-16T17:05:09.390Z,68.79
2019-01-16T17:07:44.699Z,68.97
2019-01-16T17:10:31.466Z,69.02
2019-01-16T17:13:18.189Z,69.09
2019-01-16T17:16:05.133Z,69.23
2019-01-16T17:19:11.366Z,69.09
2019-01-16T17:21:50.137Z,69.20
2019-01-16T17:24:36.863Z,69.55
2019-01-16T17:27:13.428Z,69.97
2019-01-16T17:30:00.227Z,70.23
2019-01-16T17:32:46.989Z,70.32
2019-01-16T17:35:33.974Z,70.47
2019-01-16T17:38:20.728Z,70.80
2019-01-16T17:41:07.427Z,71.13
2019-01-16T17:43:54.530Z,70.87
2019-01-16T17:46:41.269Z,70.72
2019-01-16T17:49:28.612Z,70.49
2019-01-16T17:52:15.411Z,70.11
2019-01-16T17:55:02.712Z,70.18
2019-01-16T17:57:50.120Z,70.20
2019-01-16T18:00:36.905Z,70.13
2019-01-16T18:03:24.270Z,70.33
2019-01-16T18:06:11.058Z,70.88
2019-01-16T18:08:57.799Z,71.26
2019-01-16T18:11:44.964Z,71.33
2019-01-16T18:14:32.031Z,71.58
2019-01-16T18:17:19.251Z,71.80
2019-01-16T18:20:06.912Z,72.05
2019-01-16T18:25:54.716Z,72.18
2019-01-16T18:29:04.102Z,72.37
2019-01-16T18:31:49.826Z,72.43
2019-01-16T18:34:37.207Z,72.30
2019-01-16T18:37:39.725Z,72.29
2019-01-16T18:40:31.744Z,72.29
2019-01-16T18:43:24.664Z,72.31
2019-01-16T18:46:14.269Z,73.33
2019-01-16T18:49:07.309Z,78.12
2019-01-16T18:52:03.625Z,78.91
2019-01-16T18:54:42.045Z,77.20
2019-01-16T18:57:38.380Z,75.06
2019-01-16T19:00:31.780Z,70.43
2019-01-16T19:03:34.021Z,69.37
2019-01-16T19:06:23.322Z,69.16
2019-01-16T19:09:16.044Z,69.18
2019-01-16T19:12:13.562Z,69.75
2019-01-16T19:15:05.742Z,69.91
2019-01-16T19:17:52.567Z,70.22
2019-01-16T19:20:34.467Z,70.45
2019-01-16T19:23:22.038Z,71.00
2019-01-16T19:26:08.192Z,71.41
2019-01-16T19:28:57.976Z,71.65
2019-01-16T19:31:51.278Z,71.65
2019-01-16T19:34:34.532Z,71.65
2019-01-16T19:37:20.642Z,71.86
2019-01-16T19:40:25.387Z,72.02
2019-01-16T19:43:12.112Z,72.11
2019-01-16T19:46:11.630Z,72.18
2019-01-16T19:49:01.901Z,72.15
2019-01-16T19:51:39.691Z,72.12
2019-01-16T19:54:27.767Z,72.09
2019-01-16T19:57:31.290Z,72.02
2019-01-16T20:00:22.406Z,72.01
2019-01-16T20:03:10.917Z,71.89
2019-01-16T20:05:57.100Z,71.80
2019-01-16T20:08:47.176Z,71.81
2019-01-16T20:11:40.354Z,71.73
2019-01-16T20:14:31.933Z,71.54
2019-01-16T20:17:27.466Z,71.47
2019-01-16T20:20:20.686Z,71.33
2019-01-16T20:23:17.482Z,71.43
2019-01-16T20:26:15.665Z,71.47
2019-01-16T20:29:02.258Z,71.45
2019-01-16T20:31:49.726Z,71.45
2019-01-16T20:34:42.032Z,71.41
2019-01-16T20:37:44.041Z,71.49
2019-01-16T20:40:34.487Z,71.54
2019-01-16T20:43:26.804Z,71.58
2019-01-16T20:46:19.908Z,71.76
2019-01-16T20:49:27.427Z,71.73
2019-01-16T20:52:13.054Z,71.89
2019-01-16T20:54:49.313Z,71.98
2019-01-16T20:57:50.683Z,71.94
2019-01-16T21:00:37.760Z,71.93
2019-01-16T21:03:37.507Z,72.05
2019-01-16T21:06:23.729Z,72.12
2019-01-16T21:09:16.523Z,72.22
2019-01-16T21:12:06.730Z,72.16
2019-01-16T21:15:00.775Z,72.13
2019-01-16T21:17:50.146Z,72.22
2019-01-16T21:20:27.573Z,72.20
2019-01-16T21:23:13.483Z,72.23
2019-01-16T21:25:53.575Z,72.18
2019-01-16T21:28:40.895Z,72.09
2019-01-16T21:31:30.929Z,72.11
2019-01-16T21:34:25.725Z,72.08
2019-01-16T21:37:11.404Z,72.20
2019-01-16T21:39:57.097Z,72.35
2019-01-16T21:42:56.127Z,72.48
2019-01-16T21:45:41.563Z,72.55
2019-01-16T21:48:19.308Z,72.49
2019-01-16T21:51:04.925Z,72.45
2019-01-16T21:53:54.175Z,72.41
2019-01-16T21:56:46.845Z,72.42
2019-01-16T21:59:31.834Z,72.31
2019-01-16T22:02:08.513Z,72.21
2019-01-16T22:04:58.225Z,72.22
2019-01-16T22:07:47.724Z,72.17
2019-01-16T22:10:37.687Z,72.19
2019-01-16T22:13:18.283Z,72.17
2019-01-16T22:16:02.585Z,72.20
2019-01-16T22:18:49.283Z,72.09
2019-01-16T22:21:45.064Z,72.12
2019-01-16T22:24:34.879Z,72.05
2019-01-16T22:27:24.528Z,71.93
2019-01-16T22:30:26.253Z,71.88
2019-01-16T22:33:08.938Z,71.84
2019-01-16T22:35:50.351Z,71.88
2019-01-16T22:38:33.031Z,71.99
2019-01-16T22:41:22.930Z,72.00
2019-01-16T22:43:57.630Z,72.02
2019-01-16T22:46:59.387Z,72.09
2019-01-16T22:49:45.748Z,71.90
2019-01-16T22:52:27.538Z,71.83
2019-01-16T22:55:32.322Z,71.62
2019-01-16T22:58:27.520Z,71.48
2019-01-16T23:01:14.686Z,71.57
2019-01-16T23:04:16.356Z,71.45
2019-01-16T23:06:50.088Z,71.49
2019-01-16T23:09:42.471Z,71.39
2019-01-16T23:12:27.704Z,71.40
2019-01-16T23:15:12.473Z,71.39
2019-01-16T23:17:53.490Z,71.45
2019-01-16T23:20:38.601Z,71.40
2019-01-16T23:23:15.123Z,71.49
2019-01-16T23:26:00.376Z,71.45
2019-01-16T23:28:45.671Z,71.35
2019-01-16T23:31:38.522Z,71.39
2019-01-16T23:34:31.225Z,71.37
2019-01-16T23:37:16.611Z,71.24
2019-01-16T23:40:05.832Z,71.28
2019-01-16T23:43:01.565Z,71.47
2019-01-16T23:45:42.342Z,71.50
2019-01-16T23:48:28.999Z,71.42
2019-01-16T23:51:15.777Z,71.36
2019-01-16T23:54:05.243Z,71.58
2019-01-16T23:56:47.322Z,71.61
2019-01-16T23:59:32.182Z,71.62
